sensor_id;sensor_type;location;lat;lon;timestamp;temperature;humidity
20650;DHT22;10484;48.736;9.332;2024-01-11T00:01:26;-3.30;1.00
20650;DHT22;10484;48.736;9.332;2024-01-11T00:03:52;-3.30;1.00
20650;DHT22;10484;48.736;9.332;2024-01-11T00:06:17;-3.30;1.00
20650;DHT22;10484;48.736;9.332;2024-01-11T00:08:43;-3.30;1.00
20650;DHT22;10484;48.736;9.332;2024-01-11T00:11:08;-3.30;1.00
20650;DHT22;10484;48.736;9.332;2024-01-11T00:13:34;-3.40;1.00
20650;DHT22;10484;48.736;9.332;2024-01-11T00:16:00;-3.40;1.00
20650;DHT22;10484;48.736;9.332;2024-01-11T00:18:25;-3.40;1.00
20650;DHT22;10484;48.736;9.332;2024-01-11T00:20:51;-3.40;1.00
20650;DHT22;10484;48.736;9.332;2024-01-11T00:23:17;-3.40;1.00
20650;DHT22;10484;48.736;9.332;2024-01-11T00:25:42;-3.40;1.00
20650;DHT22;10484;48.736;9.332;2024-01-11T00:28:08;-3.40;1.00
20650;DHT22;10484;48.736;9.332;2024-01-11T00:30:33;-3.40;1.00
20650;DHT22;10484;48.736;9.332;2024-01-11T00:32:59;-3.40;1.00
20650;DHT22;10484;48.736;9.332;2024-01-11T00:35:25;-3.50;1.00
20650;DHT22;10484;48.736;9.332;2024-01-11T00:37:50;-3.50;1.00
20650;DHT22;10484;48.736;9.332;2024-01-11T00:40:16;-3.50;1.00
20650;DHT22;10484;48.736;9.332;2024-01-11T00:42:41;-3.60;1.00
20650;DHT22;10484;48.736;9.332;2024-01-11T00:45:07;-3.60;1.00
20650;DHT22;10484;48.736;9.332;2024-01-11T00:47:33;-3.60;1.00
20650;DHT22;10484;48.736;9.332;2024-01-11T00:49:58;-3.60;1.00
20650;DHT22;10484;48.736;9.332;2024-01-11T00:52:24;-3.70;1.00
20650;DHT22;10484;48.736;9.332;2024-01-11T00:54:49;-3.70;1.00
20650;DHT22;10484;48.736;9.332;2024-01-11T00:57:15;-3.70;1.00
20650;DHT22;10484;48.736;9.332;2024-01-11T00:59:43;-3.60;1.00
20650;DHT22;10484;48.736;9.332;2024-01-11T01:02:09;-3.70;1.00
20650;DHT22;10484;48.736;9.332;2024-01-11T01:04:38;-3.60;1.00
20650;DHT22;10484;48.736;9.332;2024-01-11T01:07:04;-3.60;1.00
20650;DHT22;10484;48.736;9.332;2024-01-11T01:09:31;-3.70;1.00
20650;DHT22;10484;48.736;9.332;2024-01-11T01:11:56;-3.70;1.00
20650;DHT22;10484;48.736;9.332;2024-01-11T01:14:22;-3.70;1.00
20650;DHT22;10484;48.736;9.332;2024-01-11T01:16:48;-3.70;1.00
20650;DHT22;10484;48.736;9.332;2024-01-11T01:19:13;-3.70;1.00
20650;DHT22;10484;48.736;9.332;2024-01-11T01:21:39;-3.70;1.00
20650;DHT22;10484;48.736;9.332;2024-01-11T01:24:04;-3.70;1.00
20650;DHT22;10484;48.736;9.332;2024-01-11T01:26:30;-3.70;1.00
20650;DHT22;10484;48.736;9.332;2024-01-11T01:28:55;-3.70;1.00
20650;DHT22;10484;48.736;9.332;2024-01-11T01:31:21;-3.80;1.00
20650;DHT22;10484;48.736;9.332;2024-01-11T01:33:47;-3.80;1.00
20650;DHT22;10484;48.736;9.332;2024-01-11T01:36:12;-3.90;1.00
20650;DHT22;10484;48.736;9.332;2024-01-11T01:38:38;-3.90;1.00
20650;DHT22;10484;48.736;9.332;2024-01-11T01:41:04;-3.90;1.00
20650;DHT22;10484;48.736;9.332;2024-01-11T01:43:29;-3.90;1.00
20650;DHT22;10484;48.736;9.332;2024-01-11T01:45:55;-3.90;1.00
20650;DHT22;10484;48.736;9.332;2024-01-11T01:48:21;-4.00;1.00
20650;DHT22;10484;48.736;9.332;2024-01-11T01:50:50;-3.90;1.00
20650;DHT22;10484;48.736;9.332;2024-01-11T01:53:23;-3.90;1.00
20650;DHT22;10484;48.736;9.332;2024-01-11T01:55:53;-3.90;1.00
20650;DHT22;10484;48.736;9.332;2024-01-11T01:58:20;-3.90;1.00
20650;DHT22;10484;48.736;9.332;2024-01-11T02:00:45;-3.90;1.00
20650;DHT22;10484;48.736;9.332;2024-01-11T02:03:12;-4.00;1.00
20650;DHT22;10484;48.736;9.332;2024-01-11T02:05:40;-4.00;1.00
20650;DHT22;10484;48.736;9.332;2024-01-11T02:08:07;-4.00;1.00
20650;DHT22;10484;48.736;9.332;2024-01-11T02:10:34;-4.00;1.00
20650;DHT22;10484;48.736;9.332;2024-01-11T02:13:01;-4.10;1.00
20650;DHT22;10484;48.736;9.332;2024-01-11T02:15:26;-4.10;1.00
20650;DHT22;10484;48.736;9.332;2024-01-11T02:17:52;-4.10;1.00
20650;DHT22;10484;48.736;9.332;2024-01-11T02:20:18;-4.10;1.00
20650;DHT22;10484;48.736;9.332;2024-01-11T02:22:47;-4.10;1.00
20650;DHT22;10484;48.736;9.332;2024-01-11T02:25:13;-4.10;1.00
20650;DHT22;10484;48.736;9.332;2024-01-11T02:27:49;-4.20;1.00
20650;DHT22;10484;48.736;9.332;2024-01-11T02:30:15;-4.20;1.00
20650;DHT22;10484;48.736;9.332;2024-01-11T02:32:43;-4.20;1.00
20650;DHT22;10484;48.736;9.332;2024-01-11T02:35:12;-4.20;1.00
20650;DHT22;10484;48.736;9.332;2024-01-11T02:37:38;-4.20;1.00
20650;DHT22;10484;48.736;9.332;2024-01-11T02:40:06;-4.20;1.00
20650;DHT22;10484;48.736;9.332;2024-01-11T02:42:33;-4.20;1.00
20650;DHT22;10484;48.736;9.332;2024-01-11T02:44:58;-4.20;1.00
20650;DHT22;10484;48.736;9.332;2024-01-11T02:47:24;-4.20;1.00
20650;DHT22;10484;48.736;9.332;2024-01-11T02:49:50;-4.20;1.00
20650;DHT22;10484;48.736;9.332;2024-01-11T02:52:15;-4.20;1.00
20650;DHT22;10484;48.736;9.332;2024-01-11T02:54:41;-4.30;1.00
20650;DHT22;10484;48.736;9.332;2024-01-11T02:57:06;-4.30;1.00
20650;DHT22;10484;48.736;9.332;2024-01-11T02:59:32;-4.30;1.00
20650;DHT22;10484;48.736;9.332;2024-01-11T03:01:58;-4.30;1.00
20650;DHT22;10484;48.736;9.332;2024-01-11T03:04:24;-4.30;1.00
20650;DHT22;10484;48.736;9.332;2024-01-11T03:06:49;-4.30;1.00
20650;DHT22;10484;48.736;9.332;2024-01-11T03:09:15;-4.30;1.00
20650;DHT22;10484;48.736;9.332;2024-01-11T03:11:40;-4.40;1.00
20650;DHT22;10484;48.736;9.332;2024-01-11T03:14:06;-4.40;1.00
20650;DHT22;10484;48.736;9.332;2024-01-11T03:16:32;-4.40;1.00
20650;DHT22;10484;48.736;9.332;2024-01-11T03:18:57;-4.40;1.00
20650;DHT22;10484;48.736;9.332;2024-01-11T03:21:23;-4.40;1.00
20650;DHT22;10484;48.736;9.332;2024-01-11T03:23:48;-4.50;1.00
20650;DHT22;10484;48.736;9.332;2024-01-11T03:26:17;-4.40;1.00
20650;DHT22;10484;48.736;9.332;2024-01-11T03:28:43;-4.40;1.00
20650;DHT22;10484;48.736;9.332;2024-01-11T03:31:09;-4.40;1.00
20650;DHT22;10484;48.736;9.332;2024-01-11T03:33:35;-4.40;1.00
20650;DHT22;10484;48.736;9.332;2024-01-11T03:36:08;-4.40;1.00
20650;DHT22;10484;48.736;9.332;2024-01-11T03:38:34;-4.40;1.00
20650;DHT22;10484;48.736;9.332;2024-01-11T03:41:00;-4.40;1.00
20650;DHT22;10484;48.736;9.332;2024-01-11T03:43:25;-4.40;1.00
20650;DHT22;10484;48.736;9.332;2024-01-11T03:45:51;-4.40;1.00
20650;DHT22;10484;48.736;9.332;2024-01-11T03:48:16;-4.40;1.00
20650;DHT22;10484;48.736;9.332;2024-01-11T03:50:42;-4.40;1.00
20650;DHT22;10484;48.736;9.332;2024-01-11T03:53:08;-4.40;1.00
20650;DHT22;10484;48.736;9.332;2024-01-11T03:55:33;-4.50;1.00
20650;DHT22;10484;48.736;9.332;2024-01-11T03:57:59;-4.50;1.00
20650;DHT22;10484;48.736;9.332;2024-01-11T04:00:25;-4.50;1.00
20650;DHT22;10484;48.736;9.332;2024-01-11T04:02:50;-4.50;1.00
20650;DHT22;10484;48.736;9.332;2024-01-11T04:05:16;-4.60;1.00
20650;DHT22;10484;48.736;9.332;2024-01-11T04:07:42;-4.60;1.00
20650;DHT22;10484;48.736;9.332;2024-01-11T04:10:08;-4.70;1.00
20650;DHT22;10484;48.736;9.332;2024-01-11T04:12:36;-4.70;1.00
20650;DHT22;10484;48.736;9.332;2024-01-11T04:15:02;-4.70;1.00
20650;DHT22;10484;48.736;9.332;2024-01-11T04:17:28;-4.70;1.00
20650;DHT22;10484;48.736;9.332;2024-01-11T04:19:54;-4.70;1.00
20650;DHT22;10484;48.736;9.332;2024-01-11T04:22:19;-4.70;1.00
20650;DHT22;10484;48.736;9.332;2024-01-11T04:24:45;-4.80;1.00
20650;DHT22;10484;48.736;9.332;2024-01-11T04:27:11;-4.80;1.00
20650;DHT22;10484;48.736;9.332;2024-01-11T04:29:37;-4.80;1.00
20650;DHT22;10484;48.736;9.332;2024-01-11T04:32:05;-4.80;1.00
20650;DHT22;10484;48.736;9.332;2024-01-11T04:34:31;-4.80;1.00
20650;DHT22;10484;48.736;9.332;2024-01-11T04:36:56;-4.80;1.00
20650;DHT22;10484;48.736;9.332;2024-01-11T04:39:22;-4.80;1.00
20650;DHT22;10484;48.736;9.332;2024-01-11T04:41:47;-4.80;1.00
20650;DHT22;10484;48.736;9.332;2024-01-11T04:44:13;-4.80;1.00
20650;DHT22;10484;48.736;9.332;2024-01-11T04:46:39;-4.70;1.00
20650;DHT22;10484;48.736;9.332;2024-01-11T04:49:05;-4.80;1.00
20650;DHT22;10484;48.736;9.332;2024-01-11T04:51:30;-4.70;1.00
20650;DHT22;10484;48.736;9.332;2024-01-11T04:53:56;-4.70;1.00
20650;DHT22;10484;48.736;9.332;2024-01-11T04:56:22;-4.80;1.00
20650;DHT22;10484;48.736;9.332;2024-01-11T04:58:48;-4.80;1.00
20650;DHT22;10484;48.736;9.332;2024-01-11T05:01:14;-4.80;1.00
20650;DHT22;10484;48.736;9.332;2024-01-11T05:03:41;-4.80;1.00
20650;DHT22;10484;48.736;9.332;2024-01-11T05:06:06;-4.90;1.00
20650;DHT22;10484;48.736;9.332;2024-01-11T05:08:32;-4.90;1.00
20650;DHT22;10484;48.736;9.332;2024-01-11T05:10:57;-4.90;1.00
20650;DHT22;10484;48.736;9.332;2024-01-11T05:13:23;-4.90;1.00
20650;DHT22;10484;48.736;9.332;2024-01-11T05:15:48;-4.90;1.00
20650;DHT22;10484;48.736;9.332;2024-01-11T05:18:14;-4.90;1.00
20650;DHT22;10484;48.736;9.332;2024-01-11T05:20:40;-4.90;1.00
20650;DHT22;10484;48.736;9.332;2024-01-11T05:23:06;-4.90;1.00
20650;DHT22;10484;48.736;9.332;2024-01-11T05:25:32;-4.90;1.00
20650;DHT22;10484;48.736;9.332;2024-01-11T05:28:03;-4.90;1.00
20650;DHT22;10484;48.736;9.332;2024-01-11T05:30:30;-4.90;1.00
20650;DHT22;10484;48.736;9.332;2024-01-11T05:32:55;-4.90;1.00
20650;DHT22;10484;48.736;9.332;2024-01-11T05:35:22;-4.90;1.00
20650;DHT22;10484;48.736;9.332;2024-01-11T05:37:49;-4.90;1.00
20650;DHT22;10484;48.736;9.332;2024-01-11T05:40:15;-4.90;1.00
20650;DHT22;10484;48.736;9.332;2024-01-11T05:42:41;-4.90;1.00
20650;DHT22;10484;48.736;9.332;2024-01-11T05:45:06;-4.90;1.00
20650;DHT22;10484;48.736;9.332;2024-01-11T05:47:32;-5.00;1.00
20650;DHT22;10484;48.736;9.332;2024-01-11T05:49:58;-5.00;1.00
20650;DHT22;10484;48.736;9.332;2024-01-11T05:52:23;-5.00;1.00
20650;DHT22;10484;48.736;9.332;2024-01-11T05:54:49;-5.00;1.00
20650;DHT22;10484;48.736;9.332;2024-01-11T05:57:14;-5.00;1.00
20650;DHT22;10484;48.736;9.332;2024-01-11T05:59:44;-5.00;1.00
20650;DHT22;10484;48.736;9.332;2024-01-11T06:02:10;-5.00;1.00
20650;DHT22;10484;48.736;9.332;2024-01-11T06:04:36;-5.00;1.00
20650;DHT22;10484;48.736;9.332;2024-01-11T06:07:02;-5.10;1.00
20650;DHT22;10484;48.736;9.332;2024-01-11T06:09:27;-5.10;1.00
20650;DHT22;10484;48.736;9.332;2024-01-11T06:11:53;-5.10;1.00
20650;DHT22;10484;48.736;9.332;2024-01-11T06:14:18;-5.10;1.00
20650;DHT22;10484;48.736;9.332;2024-01-11T06:16:44;-5.10;1.00
20650;DHT22;10484;48.736;9.332;2024-01-11T06:19:10;-5.10;1.00
20650;DHT22;10484;48.736;9.332;2024-01-11T06:21:35;-5.00;1.00
20650;DHT22;10484;48.736;9.332;2024-01-11T06:24:01;-5.00;1.00
20650;DHT22;10484;48.736;9.332;2024-01-11T06:26:28;-5.00;1.00
20650;DHT22;10484;48.736;9.332;2024-01-11T06:28:54;-5.00;1.00
20650;DHT22;10484;48.736;9.332;2024-01-11T06:31:20;-5.10;1.00
20650;DHT22;10484;48.736;9.332;2024-01-11T06:33:45;-5.10;1.00
20650;DHT22;10484;48.736;9.332;2024-01-11T06:36:11;-5.10;1.00
20650;DHT22;10484;48.736;9.332;2024-01-11T06:38:36;-5.00;1.00
20650;DHT22;10484;48.736;9.332;2024-01-11T06:41:02;-5.00;1.00
20650;DHT22;10484;48.736;9.332;2024-01-11T06:43:28;-5.00;1.00
20650;DHT22;10484;48.736;9.332;2024-01-11T06:45:53;-5.00;1.00
20650;DHT22;10484;48.736;9.332;2024-01-11T06:48:19;-5.10;1.00
20650;DHT22;10484;48.736;9.332;2024-01-11T06:50:44;-5.10;1.00
20650;DHT22;10484;48.736;9.332;2024-01-11T06:53:10;-5.20;1.00
20650;DHT22;10484;48.736;9.332;2024-01-11T06:55:36;-5.20;1.00
20650;DHT22;10484;48.736;9.332;2024-01-11T06:58:01;-5.20;1.00
20650;DHT22;10484;48.736;9.332;2024-01-11T07:00:27;-5.20;1.00
20650;DHT22;10484;48.736;9.332;2024-01-11T07:02:53;-5.20;1.00
20650;DHT22;10484;48.736;9.332;2024-01-11T07:05:19;-5.20;1.00
20650;DHT22;10484;48.736;9.332;2024-01-11T07:07:44;-5.20;1.00
20650;DHT22;10484;48.736;9.332;2024-01-11T07:10:10;-5.20;1.00
20650;DHT22;10484;48.736;9.332;2024-01-11T07:12:36;-5.20;1.00
20650;DHT22;10484;48.736;9.332;2024-01-11T07:15:03;-5.20;1.00
20650;DHT22;10484;48.736;9.332;2024-01-11T07:17:30;-5.20;1.00
20650;DHT22;10484;48.736;9.332;2024-01-11T07:19:55;-5.20;1.00
20650;DHT22;10484;48.736;9.332;2024-01-11T07:22:21;-5.20;1.00
20650;DHT22;10484;48.736;9.332;2024-01-11T07:24:47;-5.20;1.00
20650;DHT22;10484;48.736;9.332;2024-01-11T07:27:12;-5.20;1.00
20650;DHT22;10484;48.736;9.332;2024-01-11T07:29:38;-5.20;1.00
20650;DHT22;10484;48.736;9.332;2024-01-11T07:32:04;-5.20;1.00
20650;DHT22;10484;48.736;9.332;2024-01-11T07:34:30;-5.30;1.00
20650;DHT22;10484;48.736;9.332;2024-01-11T07:36:55;-5.30;1.00
20650;DHT22;10484;48.736;9.332;2024-01-11T07:39:22;-5.30;1.00
20650;DHT22;10484;48.736;9.332;2024-01-11T07:41:48;-5.30;1.00
20650;DHT22;10484;48.736;9.332;2024-01-11T07:44:13;-5.30;1.00
20650;DHT22;10484;48.736;9.332;2024-01-11T07:46:39;-5.30;1.00
20650;DHT22;10484;48.736;9.332;2024-01-11T07:49:06;-5.30;1.00
20650;DHT22;10484;48.736;9.332;2024-01-11T07:51:33;-5.20;1.00
20650;DHT22;10484;48.736;9.332;2024-01-11T07:53:59;-5.30;1.00
20650;DHT22;10484;48.736;9.332;2024-01-11T07:56:25;-5.30;1.00
20650;DHT22;10484;48.736;9.332;2024-01-11T07:58:51;-5.20;1.00
20650;DHT22;10484;48.736;9.332;2024-01-11T08:01:17;-5.20;1.00
20650;DHT22;10484;48.736;9.332;2024-01-11T08:03:42;-5.20;1.00
20650;DHT22;10484;48.736;9.332;2024-01-11T08:06:10;-5.20;1.00
20650;DHT22;10484;48.736;9.332;2024-01-11T08:08:36;-5.10;1.00
20650;DHT22;10484;48.736;9.332;2024-01-11T08:11:04;-5.10;1.00
20650;DHT22;10484;48.736;9.332;2024-01-11T08:13:30;-5.10;1.00
20650;DHT22;10484;48.736;9.332;2024-01-11T08:15:56;-5.10;1.00
20650;DHT22;10484;48.736;9.332;2024-01-11T08:18:23;-5.10;1.00
20650;DHT22;10484;48.736;9.332;2024-01-11T08:20:49;-5.10;1.00
20650;DHT22;10484;48.736;9.332;2024-01-11T08:23:14;-5.10;1.00
20650;DHT22;10484;48.736;9.332;2024-01-11T08:25:40;-5.10;1.00
20650;DHT22;10484;48.736;9.332;2024-01-11T08:28:06;-5.10;1.00
20650;DHT22;10484;48.736;9.332;2024-01-11T08:30:32;-5.00;1.00
20650;DHT22;10484;48.736;9.332;2024-01-11T08:32:58;-5.00;1.00
20650;DHT22;10484;48.736;9.332;2024-01-11T08:35:23;-5.00;1.00
20650;DHT22;10484;48.736;9.332;2024-01-11T08:37:49;-4.90;1.00
20650;DHT22;10484;48.736;9.332;2024-01-11T08:40:15;-4.90;1.00
20650;DHT22;10484;48.736;9.332;2024-01-11T08:42:41;-4.80;1.00
20650;DHT22;10484;48.736;9.332;2024-01-11T08:45:08;-4.80;1.00
20650;DHT22;10484;48.736;9.332;2024-01-11T08:47:34;-4.80;1.00
20650;DHT22;10484;48.736;9.332;2024-01-11T08:50:01;-4.80;1.00
20650;DHT22;10484;48.736;9.332;2024-01-11T08:52:31;-4.80;1.00
20650;DHT22;10484;48.736;9.332;2024-01-11T08:54:57;-4.80;1.00
20650;DHT22;10484;48.736;9.332;2024-01-11T08:57:23;-4.70;1.00
20650;DHT22;10484;48.736;9.332;2024-01-11T08:59:48;-4.70;1.00
20650;DHT22;10484;48.736;9.332;2024-01-11T09:02:14;-4.70;1.00
20650;DHT22;10484;48.736;9.332;2024-01-11T09:04:39;-4.60;1.00
20650;DHT22;10484;48.736;9.332;2024-01-11T09:07:05;-4.60;1.00
20650;DHT22;10484;48.736;9.332;2024-01-11T09:09:30;-4.50;1.00
20650;DHT22;10484;48.736;9.332;2024-01-11T09:11:56;-4.50;1.00
20650;DHT22;10484;48.736;9.332;2024-01-11T09:14:22;-4.50;1.00
20650;DHT22;10484;48.736;9.332;2024-01-11T09:16:47;-4.40;1.00
20650;DHT22;10484;48.736;9.332;2024-01-11T09:19:14;-4.40;1.00
20650;DHT22;10484;48.736;9.332;2024-01-11T09:21:40;-4.40;1.00
20650;DHT22;10484;48.736;9.332;2024-01-11T09:24:07;-4.30;1.00
20650;DHT22;10484;48.736;9.332;2024-01-11T09:26:33;-4.20;1.00
20650;DHT22;10484;48.736;9.332;2024-01-11T09:28:58;-4.20;1.00
20650;DHT22;10484;48.736;9.332;2024-01-11T09:31:24;-4.10;1.00
20650;DHT22;10484;48.736;9.332;2024-01-11T09:33:49;-4.00;1.00
20650;DHT22;10484;48.736;9.332;2024-01-11T09:36:15;-3.90;1.00
20650;DHT22;10484;48.736;9.332;2024-01-11T09:38:41;-3.80;1.00
20650;DHT22;10484;48.736;9.332;2024-01-11T09:41:08;-3.70;1.00
20650;DHT22;10484;48.736;9.332;2024-01-11T09:43:34;-3.50;1.00
20650;DHT22;10484;48.736;9.332;2024-01-11T09:46:05;-3.40;1.00
20650;DHT22;10484;48.736;9.332;2024-01-11T09:48:33;-3.30;1.00
20650;DHT22;10484;48.736;9.332;2024-01-11T09:51:01;-3.20;1.00
20650;DHT22;10484;48.736;9.332;2024-01-11T09:53:29;-3.10;1.00
20650;DHT22;10484;48.736;9.332;2024-01-11T09:55:58;-3.10;1.00
20650;DHT22;10484;48.736;9.332;2024-01-11T09:58:23;-3.00;1.00
20650;DHT22;10484;48.736;9.332;2024-01-11T10:00:54;-3.00;1.00
20650;DHT22;10484;48.736;9.332;2024-01-11T10:03:21;-3.00;1.00
20650;DHT22;10484;48.736;9.332;2024-01-11T10:05:49;-2.90;1.00
20650;DHT22;10484;48.736;9.332;2024-01-11T10:08:21;-2.90;1.00
20650;DHT22;10484;48.736;9.332;2024-01-11T10:10:47;-2.90;1.00
20650;DHT22;10484;48.736;9.332;2024-01-11T10:13:14;-2.90;1.00
20650;DHT22;10484;48.736;9.332;2024-01-11T10:15:39;-2.90;1.00
20650;DHT22;10484;48.736;9.332;2024-01-11T10:18:05;-2.90;1.00
20650;DHT22;10484;48.736;9.332;2024-01-11T10:20:31;-2.90;1.00
20650;DHT22;10484;48.736;9.332;2024-01-11T10:22:57;-2.90;1.00
20650;DHT22;10484;48.736;9.332;2024-01-11T10:25:23;-2.90;1.00
20650;DHT22;10484;48.736;9.332;2024-01-11T10:27:49;-2.90;1.00
20650;DHT22;10484;48.736;9.332;2024-01-11T10:30:16;-2.90;1.00
20650;DHT22;10484;48.736;9.332;2024-01-11T10:32:48;-3.00;1.00
20650;DHT22;10484;48.736;9.332;2024-01-11T10:35:14;-3.00;1.00
20650;DHT22;10484;48.736;9.332;2024-01-11T10:37:43;-2.90;1.00
20650;DHT22;10484;48.736;9.332;2024-01-11T10:40:10;-3.00;1.00
20650;DHT22;10484;48.736;9.332;2024-01-11T10:42:45;-2.90;1.00
20650;DHT22;10484;48.736;9.332;2024-01-11T10:45:18;-2.90;1.00
20650;DHT22;10484;48.736;9.332;2024-01-11T10:48:00;-2.90;1.00
20650;DHT22;10484;48.736;9.332;2024-01-11T10:50:30;-2.90;1.00
20650;DHT22;10484;48.736;9.332;2024-01-11T10:53:16;-2.90;1.00
20650;DHT22;10484;48.736;9.332;2024-01-11T10:55:47;-2.80;1.00
20650;DHT22;10484;48.736;9.332;2024-01-11T10:58:15;-2.80;1.00
20650;DHT22;10484;48.736;9.332;2024-01-11T11:00:41;-2.70;1.00
20650;DHT22;10484;48.736;9.332;2024-01-11T11:03:07;-2.70;1.00
20650;DHT22;10484;48.736;9.332;2024-01-11T11:05:37;-2.60;1.00
20650;DHT22;10484;48.736;9.332;2024-01-11T11:08:04;-2.60;1.00
20650;DHT22;10484;48.736;9.332;2024-01-11T11:10:32;-2.60;1.00
20650;DHT22;10484;48.736;9.332;2024-01-11T11:12:59;-2.50;1.00
20650;DHT22;10484;48.736;9.332;2024-01-11T11:15:27;-2.50;1.00
20650;DHT22;10484;48.736;9.332;2024-01-11T11:17:53;-2.40;1.00
20650;DHT22;10484;48.736;9.332;2024-01-11T11:20:19;-2.40;1.00
20650;DHT22;10484;48.736;9.332;2024-01-11T11:23:03;-2.30;1.00
20650;DHT22;10484;48.736;9.332;2024-01-11T11:25:30;-2.30;1.00
20650;DHT22;10484;48.736;9.332;2024-01-11T11:27:55;-2.20;1.00
20650;DHT22;10484;48.736;9.332;2024-01-11T11:30:21;-2.20;1.00
20650;DHT22;10484;48.736;9.332;2024-01-11T11:32:47;-2.10;1.00
20650;DHT22;10484;48.736;9.332;2024-01-11T11:35:13;-2.10;1.00
20650;DHT22;10484;48.736;9.332;2024-01-11T11:37:39;-2.10;1.00
20650;DHT22;10484;48.736;9.332;2024-01-11T11:40:09;-2.00;1.00
20650;DHT22;10484;48.736;9.332;2024-01-11T11:42:39;-1.90;1.00
20650;DHT22;10484;48.736;9.332;2024-01-11T11:45:07;-1.90;1.00
20650;DHT22;10484;48.736;9.332;2024-01-11T11:47:36;-1.80;1.00
20650;DHT22;10484;48.736;9.332;2024-01-11T11:50:10;-1.80;1.00
20650;DHT22;10484;48.736;9.332;2024-01-11T11:52:38;-1.70;1.00
20650;DHT22;10484;48.736;9.332;2024-01-11T11:55:06;-1.70;1.00
20650;DHT22;10484;48.736;9.332;2024-01-11T11:57:32;-1.60;1.00
20650;DHT22;10484;48.736;9.332;2024-01-11T11:59:58;-1.60;1.00
20650;DHT22;10484;48.736;9.332;2024-01-11T12:02:27;-1.50;1.00
20650;DHT22;10484;48.736;9.332;2024-01-11T12:04:53;-1.50;1.00
20650;DHT22;10484;48.736;9.332;2024-01-11T12:07:22;-1.40;1.00
20650;DHT22;10484;48.736;9.332;2024-01-11T12:09:51;-1.40;1.00
20650;DHT22;10484;48.736;9.332;2024-01-11T12:12:18;-1.30;1.00
20650;DHT22;10484;48.736;9.332;2024-01-11T12:14:48;-1.20;1.00
20650;DHT22;10484;48.736;9.332;2024-01-11T12:17:20;-1.20;1.00
20650;DHT22;10484;48.736;9.332;2024-01-11T12:19:46;-1.10;1.00
20650;DHT22;10484;48.736;9.332;2024-01-11T12:22:11;-1.10;1.00
20650;DHT22;10484;48.736;9.332;2024-01-11T12:24:37;-1.00;1.00
20650;DHT22;10484;48.736;9.332;2024-01-11T12:27:03;-1.00;1.00
20650;DHT22;10484;48.736;9.332;2024-01-11T12:29:29;-1.00;1.00
20650;DHT22;10484;48.736;9.332;2024-01-11T12:31:58;-0.90;1.00
20650;DHT22;10484;48.736;9.332;2024-01-11T12:34:24;-0.90;1.00
20650;DHT22;10484;48.736;9.332;2024-01-11T12:36:52;-0.80;1.00
20650;DHT22;10484;48.736;9.332;2024-01-11T12:39:19;-0.70;1.00
20650;DHT22;10484;48.736;9.332;2024-01-11T12:41:44;-0.70;1.00
20650;DHT22;10484;48.736;9.332;2024-01-11T12:44:10;-0.70;1.00
20650;DHT22;10484;48.736;9.332;2024-01-11T12:46:35;-0.60;1.00
20650;DHT22;10484;48.736;9.332;2024-01-11T12:49:01;-0.60;1.00
20650;DHT22;10484;48.736;9.332;2024-01-11T12:51:27;-0.50;1.00
20650;DHT22;10484;48.736;9.332;2024-01-11T12:53:52;-0.50;1.00
20650;DHT22;10484;48.736;9.332;2024-01-11T12:56:19;-0.50;1.00
20650;DHT22;10484;48.736;9.332;2024-01-11T12:58:46;-0.40;1.00
20650;DHT22;10484;48.736;9.332;2024-01-11T13:01:12;-0.30;1.00
20650;DHT22;10484;48.736;9.332;2024-01-11T13:03:43;-0.30;1.00
20650;DHT22;10484;48.736;9.332;2024-01-11T13:06:10;-0.20;1.00
20650;DHT22;10484;48.736;9.332;2024-01-11T13:08:37;-0.10;1.00
20650;DHT22;10484;48.736;9.332;2024-01-11T13:11:05;0.00;1.00
20650;DHT22;10484;48.736;9.332;2024-01-11T13:13:35;0.10;1.00
20650;DHT22;10484;48.736;9.332;2024-01-11T13:16:04;0.20;1.00
20650;DHT22;10484;48.736;9.332;2024-01-11T13:18:32;0.20;1.00
20650;DHT22;10484;48.736;9.332;2024-01-11T13:20:57;0.20;1.00
20650;DHT22;10484;48.736;9.332;2024-01-11T13:23:23;0.30;1.00
20650;DHT22;10484;48.736;9.332;2024-01-11T13:25:50;0.30;1.00
20650;DHT22;10484;48.736;9.332;2024-01-11T13:28:16;0.30;1.00
20650;DHT22;10484;48.736;9.332;2024-01-11T13:30:44;0.30;1.00
20650;DHT22;10484;48.736;9.332;2024-01-11T13:33:11;0.30;1.00
20650;DHT22;10484;48.736;9.332;2024-01-11T13:35:37;0.40;1.00
20650;DHT22;10484;48.736;9.332;2024-01-11T13:38:04;0.40;1.00
20650;DHT22;10484;48.736;9.332;2024-01-11T13:40:30;0.40;1.00
20650;DHT22;10484;48.736;9.332;2024-01-11T13:42:57;0.40;1.00
20650;DHT22;10484;48.736;9.332;2024-01-11T13:45:23;0.40;1.00
20650;DHT22;10484;48.736;9.332;2024-01-11T13:47:49;0.40;1.00
20650;DHT22;10484;48.736;9.332;2024-01-11T13:50:15;0.40;1.00
20650;DHT22;10484;48.736;9.332;2024-01-11T13:52:41;0.40;1.00
20650;DHT22;10484;48.736;9.332;2024-01-11T13:55:07;0.40;1.00
20650;DHT22;10484;48.736;9.332;2024-01-11T13:57:38;0.40;1.00
20650;DHT22;10484;48.736;9.332;2024-01-11T14:00:05;0.40;1.00
20650;DHT22;10484;48.736;9.332;2024-01-11T14:02:31;0.40;1.00
20650;DHT22;10484;48.736;9.332;2024-01-11T14:04:57;0.40;1.00
20650;DHT22;10484;48.736;9.332;2024-01-11T14:07:23;0.40;1.00
20650;DHT22;10484;48.736;9.332;2024-01-11T14:09:50;0.40;1.00
20650;DHT22;10484;48.736;9.332;2024-01-11T14:12:16;0.40;1.00
20650;DHT22;10484;48.736;9.332;2024-01-11T14:14:42;0.40;1.00
20650;DHT22;10484;48.736;9.332;2024-01-11T14:17:08;0.40;1.00
20650;DHT22;10484;48.736;9.332;2024-01-11T14:19:34;0.40;1.00
20650;DHT22;10484;48.736;9.332;2024-01-11T14:22:00;0.40;1.00
20650;DHT22;10484;48.736;9.332;2024-01-11T14:24:26;0.40;1.00
20650;DHT22;10484;48.736;9.332;2024-01-11T14:26:52;0.40;1.00
20650;DHT22;10484;48.736;9.332;2024-01-11T14:29:17;0.40;1.00
20650;DHT22;10484;48.736;9.332;2024-01-11T14:31:43;0.40;1.00
20650;DHT22;10484;48.736;9.332;2024-01-11T14:34:09;0.40;1.00
20650;DHT22;10484;48.736;9.332;2024-01-11T14:36:36;0.40;1.00
20650;DHT22;10484;48.736;9.332;2024-01-11T14:39:02;0.40;1.00
20650;DHT22;10484;48.736;9.332;2024-01-11T14:41:33;0.40;1.00
20650;DHT22;10484;48.736;9.332;2024-01-11T14:44:01;0.40;1.00
20650;DHT22;10484;48.736;9.332;2024-01-11T14:46:27;0.40;1.00
20650;DHT22;10484;48.736;9.332;2024-01-11T14:48:53;0.40;1.00
20650;DHT22;10484;48.736;9.332;2024-01-11T14:51:18;0.40;1.00
20650;DHT22;10484;48.736;9.332;2024-01-11T14:53:44;0.40;1.00
20650;DHT22;10484;48.736;9.332;2024-01-11T14:56:11;0.30;1.00
20650;DHT22;10484;48.736;9.332;2024-01-11T14:58:36;0.30;1.00
20650;DHT22;10484;48.736;9.332;2024-01-11T15:01:02;0.30;1.00
20650;DHT22;10484;48.736;9.332;2024-01-11T15:03:29;0.30;1.00
20650;DHT22;10484;48.736;9.332;2024-01-11T15:05:54;0.30;1.00
20650;DHT22;10484;48.736;9.332;2024-01-11T15:08:20;0.30;1.00
20650;DHT22;10484;48.736;9.332;2024-01-11T15:10:46;0.30;1.00
20650;DHT22;10484;48.736;9.332;2024-01-11T15:13:12;0.30;1.00
20650;DHT22;10484;48.736;9.332;2024-01-11T15:15:37;0.30;1.00
20650;DHT22;10484;48.736;9.332;2024-01-11T15:18:04;0.20;1.00
20650;DHT22;10484;48.736;9.332;2024-01-11T15:20:29;0.20;1.00
20650;DHT22;10484;48.736;9.332;2024-01-11T15:22:55;0.20;1.00
20650;DHT22;10484;48.736;9.332;2024-01-11T15:25:21;0.20;1.00
20650;DHT22;10484;48.736;9.332;2024-01-11T15:27:46;0.20;1.00
20650;DHT22;10484;48.736;9.332;2024-01-11T15:30:12;0.10;1.00
20650;DHT22;10484;48.736;9.332;2024-01-11T15:32:39;0.10;1.00
20650;DHT22;10484;48.736;9.332;2024-01-11T15:35:05;0.10;1.00
20650;DHT22;10484;48.736;9.332;2024-01-11T15:37:33;0.10;1.00
20650;DHT22;10484;48.736;9.332;2024-01-11T15:40:00;0.10;1.00
20650;DHT22;10484;48.736;9.332;2024-01-11T15:42:25;0.10;1.00
20650;DHT22;10484;48.736;9.332;2024-01-11T15:44:51;0.10;1.00